sensor_id;sensor_type;location;lat;lon;timestamp;P1;durP1;ratioP1;P2;durP2;ratioP2
2041;SDS011;1026;51.460;7.252;2023-04-12T00:01:48;3.70;;;2.10;;
2041;SDS011;1026;51.460;7.252;2023-04-12T00:04:14;4.47;;;1.97;;
2041;SDS011;1026;51.460;7.252;2023-04-12T00:06:40;1.70;;;1.60;;
2041;SDS011;1026;51.460;7.252;2023-04-12T00:09:06;8.73;;;2.37;;
2041;SDS011;1026;51.460;7.252;2023-04-12T00:11:32;3.40;;;1.50;;
2041;SDS011;1026;51.460;7.252;2023-04-12T00:13:59;4.00;;;1.90;;
2041;SDS011;1026;51.460;7.252;2023-04-12T00:16:24;3.03;;;2.07;;
2041;SDS011;1026;51.460;7.252;2023-04-12T00:18:50;2.20;;;1.47;;
2041;SDS011;1026;51.460;7.252;2023-04-12T00:21:16;4.87;;;1.50;;
2041;SDS011;1026;51.460;7.252;2023-04-12T00:23:44;2.03;;;1.43;;
2041;SDS011;1026;51.460;7.252;2023-04-12T00:26:10;6.37;;;1.83;;
2041;SDS011;1026;51.460;7.252;2023-04-12T00:28:36;2.30;;;1.33;;
2041;SDS011;1026;51.460;7.252;2023-04-12T00:31:02;3.20;;;2.03;;
2041;SDS011;1026;51.460;7.252;2023-04-12T00:33:27;2.30;;;1.80;;
2041;SDS011;1026;51.460;7.252;2023-04-12T00:35:53;1.97;;;1.57;;
2041;SDS011;1026;51.460;7.252;2023-04-12T00:38:19;3.67;;;1.40;;
2041;SDS011;1026;51.460;7.252;2023-04-12T00:40:44;3.00;;;1.30;;
2041;SDS011;1026;51.460;7.252;2023-04-12T00:43:10;1.00;;;0.90;;
2041;SDS011;1026;51.460;7.252;2023-04-12T00:45:39;1.07;;;1.07;;
2041;SDS011;1026;51.460;7.252;2023-04-12T00:48:06;3.83;;;1.43;;
2041;SDS011;1026;51.460;7.252;2023-04-12T00:50:33;1.83;;;1.73;;
2041;SDS011;1026;51.460;7.252;2023-04-12T00:53:00;3.00;;;1.57;;
2041;SDS011;1026;51.460;7.252;2023-04-12T00:55:27;3.00;;;1.63;;
2041;SDS011;1026;51.460;7.252;2023-04-12T00:57:53;2.70;;;1.40;;
2041;SDS011;1026;51.460;7.252;2023-04-12T01:00:18;2.60;;;1.27;;
2041;SDS011;1026;51.460;7.252;2023-04-12T01:02:45;4.37;;;1.67;;
2041;SDS011;1026;51.460;7.252;2023-04-12T01:05:15;2.50;;;1.00;;
2041;SDS011;1026;51.460;7.252;2023-04-12T01:13:27;2.40;;;1.43;;
2041;SDS011;1026;51.460;7.252;2023-04-12T01:16:14;4.33;;;1.57;;
2041;SDS011;1026;51.460;7.252;2023-04-12T01:18:44;3.93;;;1.70;;
2041;SDS011;1026;51.460;7.252;2023-04-12T01:21:17;2.80;;;1.17;;
2041;SDS011;1026;51.460;7.252;2023-04-12T01:26:47;9.67;;;1.53;;
2041;SDS011;1026;51.460;7.252;2023-04-12T01:29:17;1.63;;;1.07;;
2041;SDS011;1026;51.460;7.252;2023-04-12T01:31:49;2.53;;;1.00;;
2041;SDS011;1026;51.460;7.252;2023-04-12T01:34:22;2.13;;;1.23;;
2041;SDS011;1026;51.460;7.252;2023-04-12T01:36:52;2.97;;;1.40;;
2041;SDS011;1026;51.460;7.252;2023-04-12T01:39:21;5.37;;;1.17;;
2041;SDS011;1026;51.460;7.252;2023-04-12T01:41:47;2.50;;;1.33;;
2041;SDS011;1026;51.460;7.252;2023-04-12T01:44:13;4.10;;;1.77;;
2041;SDS011;1026;51.460;7.252;2023-04-12T01:46:41;4.47;;;1.30;;
2041;SDS011;1026;51.460;7.252;2023-04-12T01:49:08;1.47;;;1.20;;
2041;SDS011;1026;51.460;7.252;2023-04-12T01:51:49;1.40;;;1.30;;
2041;SDS011;1026;51.460;7.252;2023-04-12T01:54:21;2.40;;;1.20;;
2041;SDS011;1026;51.460;7.252;2023-04-12T01:56:52;5.10;;;2.73;;
2041;SDS011;1026;51.460;7.252;2023-04-12T01:59:21;3.03;;;1.50;;
2041;SDS011;1026;51.460;7.252;2023-04-12T02:01:50;1.50;;;1.33;;
2041;SDS011;1026;51.460;7.252;2023-04-12T02:04:17;3.27;;;1.70;;
2041;SDS011;1026;51.460;7.252;2023-04-12T02:06:43;4.00;;;1.13;;
2041;SDS011;1026;51.460;7.252;2023-04-12T02:09:11;6.63;;;2.20;;
2041;SDS011;1026;51.460;7.252;2023-04-12T02:11:36;1.63;;;1.10;;
2041;SDS011;1026;51.460;7.252;2023-04-12T02:14:02;1.57;;;1.00;;
2041;SDS011;1026;51.460;7.252;2023-04-12T02:16:27;1.97;;;1.77;;
2041;SDS011;1026;51.460;7.252;2023-04-12T02:18:53;1.73;;;0.97;;
2041;SDS011;1026;51.460;7.252;2023-04-12T02:21:21;1.67;;;1.33;;
2041;SDS011;1026;51.460;7.252;2023-04-12T02:23:47;3.60;;;1.33;;
2041;SDS011;1026;51.460;7.252;2023-04-12T02:26:12;1.90;;;1.20;;
2041;SDS011;1026;51.460;7.252;2023-04-12T02:28:38;3.20;;;1.37;;
2041;SDS011;1026;51.460;7.252;2023-04-12T02:31:04;3.27;;;1.40;;
2041;SDS011;1026;51.460;7.252;2023-04-12T02:33:31;3.63;;;1.33;;
2041;SDS011;1026;51.460;7.252;2023-04-12T02:35:57;1.53;;;1.07;;
2041;SDS011;1026;51.460;7.252;2023-04-12T02:38:23;2.70;;;1.27;;
2041;SDS011;1026;51.460;7.252;2023-04-12T02:40:49;2.13;;;1.30;;
2041;SDS011;1026;51.460;7.252;2023-04-12T02:43:15;6.90;;;1.60;;
2041;SDS011;1026;51.460;7.252;2023-04-12T02:45:40;2.13;;;1.27;;
2041;SDS011;1026;51.460;7.252;2023-04-12T02:48:06;6.20;;;1.63;;
2041;SDS011;1026;51.460;7.252;2023-04-12T02:50:32;3.00;;;1.67;;
2041;SDS011;1026;51.460;7.252;2023-04-12T02:52:58;1.60;;;1.47;;
2041;SDS011;1026;51.460;7.252;2023-04-12T02:55:23;4.30;;;2.00;;
2041;SDS011;1026;51.460;7.252;2023-04-12T02:57:49;1.60;;;1.13;;
2041;SDS011;1026;51.460;7.252;2023-04-12T03:00:15;4.77;;;1.23;;
2041;SDS011;1026;51.460;7.252;2023-04-12T03:02:41;1.00;;;0.90;;
2041;SDS011;1026;51.460;7.252;2023-04-12T03:05:15;2.80;;;1.30;;
2041;SDS011;1026;51.460;7.252;2023-04-12T03:07:41;1.50;;;1.10;;
2041;SDS011;1026;51.460;7.252;2023-04-12T03:10:08;2.50;;;1.47;;
2041;SDS011;1026;51.460;7.252;2023-04-12T03:12:35;1.53;;;1.33;;
2041;SDS011;1026;51.460;7.252;2023-04-12T03:15:01;2.40;;;1.30;;
2041;SDS011;1026;51.460;7.252;2023-04-12T03:17:27;1.70;;;1.10;;
2041;SDS011;1026;51.460;7.252;2023-04-12T03:19:52;1.23;;;1.00;;
2041;SDS011;1026;51.460;7.252;2023-04-12T03:22:18;2.93;;;1.13;;
2041;SDS011;1026;51.460;7.252;2023-04-12T03:24:44;2.00;;;1.67;;
2041;SDS011;1026;51.460;7.252;2023-04-12T03:27:10;2.87;;;1.13;;
2041;SDS011;1026;51.460;7.252;2023-04-12T03:29:36;1.60;;;1.00;;
2041;SDS011;1026;51.460;7.252;2023-04-12T03:32:02;2.60;;;1.77;;
2041;SDS011;1026;51.460;7.252;2023-04-12T03:34:27;1.73;;;1.50;;
2041;SDS011;1026;51.460;7.252;2023-04-12T03:36:56;1.30;;;1.20;;
2041;SDS011;1026;51.460;7.252;2023-04-12T03:39:22;4.53;;;2.60;;
2041;SDS011;1026;51.460;7.252;2023-04-12T03:41:48;2.57;;;1.27;;
2041;SDS011;1026;51.460;7.252;2023-04-12T03:44:14;2.20;;;0.90;;
2041;SDS011;1026;51.460;7.252;2023-04-12T03:46:40;3.47;;;1.30;;
2041;SDS011;1026;51.460;7.252;2023-04-12T03:49:06;2.93;;;2.03;;
2041;SDS011;1026;51.460;7.252;2023-04-12T03:51:31;4.30;;;1.10;;
2041;SDS011;1026;51.460;7.252;2023-04-12T03:53:58;4.07;;;1.20;;
2041;SDS011;1026;51.460;7.252;2023-04-12T03:56:23;1.60;;;1.10;;
2041;SDS011;1026;51.460;7.252;2023-04-12T03:58:49;0.90;;;0.90;;
2041;SDS011;1026;51.460;7.252;2023-04-12T04:01:15;6.23;;;1.40;;
2041;SDS011;1026;51.460;7.252;2023-04-12T04:03:42;2.10;;;0.80;;
2041;SDS011;1026;51.460;7.252;2023-04-12T04:06:08;2.73;;;1.20;;
2041;SDS011;1026;51.460;7.252;2023-04-12T04:08:35;1.30;;;0.90;;
2041;SDS011;1026;51.460;7.252;2023-04-12T04:11:02;1.60;;;1.20;;
2041;SDS011;1026;51.460;7.252;2023-04-12T04:13:27;1.03;;;0.93;;
2041;SDS011;1026;51.460;7.252;2023-04-12T04:18:35;2.10;;;1.30;;
2041;SDS011;1026;51.460;7.252;2023-04-12T04:21:00;3.70;;;1.73;;
2041;SDS011;1026;51.460;7.252;2023-04-12T04:23:26;1.77;;;1.13;;
2041;SDS011;1026;51.460;7.252;2023-04-12T04:25:54;2.40;;;1.17;;
2041;SDS011;1026;51.460;7.252;2023-04-12T04:28:20;3.77;;;1.20;;
2041;SDS011;1026;51.460;7.252;2023-04-12T04:30:52;2.50;;;1.23;;
2041;SDS011;1026;51.460;7.252;2023-04-12T04:33:20;2.60;;;1.40;;
2041;SDS011;1026;51.460;7.252;2023-04-12T04:35:47;2.40;;;1.20;;
2041;SDS011;1026;51.460;7.252;2023-04-12T04:38:13;0.97;;;0.97;;
2041;SDS011;1026;51.460;7.252;2023-04-12T04:40:39;2.63;;;1.10;;
2041;SDS011;1026;51.460;7.252;2023-04-12T04:43:05;1.50;;;1.27;;
2041;SDS011;1026;51.460;7.252;2023-04-12T04:45:31;1.30;;;1.00;;
2041;SDS011;1026;51.460;7.252;2023-04-12T04:47:56;1.60;;;1.00;;
2041;SDS011;1026;51.460;7.252;2023-04-12T04:50:23;2.07;;;1.20;;
2041;SDS011;1026;51.460;7.252;2023-04-12T04:52:50;0.93;;;0.80;;
2041;SDS011;1026;51.460;7.252;2023-04-12T04:55:16;1.47;;;1.10;;
2041;SDS011;1026;51.460;7.252;2023-04-12T04:57:43;2.20;;;1.10;;
2041;SDS011;1026;51.460;7.252;2023-04-12T05:00:09;1.90;;;1.27;;
2041;SDS011;1026;51.460;7.252;2023-04-12T05:02:36;2.87;;;1.00;;
2041;SDS011;1026;51.460;7.252;2023-04-12T05:05:04;1.27;;;1.17;;
2041;SDS011;1026;51.460;7.252;2023-04-12T05:07:30;5.20;;;1.30;;
2041;SDS011;1026;51.460;7.252;2023-04-12T05:09:56;2.73;;;1.10;;
2041;SDS011;1026;51.460;7.252;2023-04-12T05:12:22;1.60;;;1.30;;
2041;SDS011;1026;51.460;7.252;2023-04-12T05:14:47;1.10;;;0.83;;
2041;SDS011;1026;51.460;7.252;2023-04-12T05:17:13;1.70;;;1.03;;
2041;SDS011;1026;51.460;7.252;2023-04-12T05:19:39;1.80;;;1.37;;
2041;SDS011;1026;51.460;7.252;2023-04-12T05:22:05;1.00;;;0.70;;
2041;SDS011;1026;51.460;7.252;2023-04-12T05:24:31;2.73;;;1.07;;
2041;SDS011;1026;51.460;7.252;2023-04-12T05:26:57;1.57;;;0.87;;
2041;SDS011;1026;51.460;7.252;2023-04-12T05:29:22;1.83;;;1.73;;
2041;SDS011;1026;51.460;7.252;2023-04-12T05:31:48;0.90;;;0.90;;
2041;SDS011;1026;51.460;7.252;2023-04-12T05:34:14;1.00;;;0.90;;
2041;SDS011;1026;51.460;7.252;2023-04-12T05:36:40;2.10;;;1.13;;
2041;SDS011;1026;51.460;7.252;2023-04-12T05:39:05;2.13;;;1.27;;
2041;SDS011;1026;51.460;7.252;2023-04-12T05:41:33;1.00;;;0.90;;
2041;SDS011;1026;51.460;7.252;2023-04-12T05:43:59;2.30;;;1.53;;
2041;SDS011;1026;51.460;7.252;2023-04-12T05:46:25;1.10;;;0.90;;
2041;SDS011;1026;51.460;7.252;2023-04-12T05:48:50;1.80;;;1.70;;
2041;SDS011;1026;51.460;7.252;2023-04-12T05:51:16;1.83;;;1.70;;
2041;SDS011;1026;51.460;7.252;2023-04-12T05:53:41;0.73;;;0.70;;
2041;SDS011;1026;51.460;7.252;2023-04-12T05:56:07;1.23;;;1.10;;
2041;SDS011;1026;51.460;7.252;2023-04-12T05:58:33;1.00;;;0.90;;
2041;SDS011;1026;51.460;7.252;2023-04-12T06:00:58;2.30;;;1.30;;
2041;SDS011;1026;51.460;7.252;2023-04-12T06:03:24;1.17;;;0.87;;
2041;SDS011;1026;51.460;7.252;2023-04-12T06:05:50;1.20;;;1.10;;
2041;SDS011;1026;51.460;7.252;2023-04-12T06:08:17;1.13;;;1.07;;
2041;SDS011;1026;51.460;7.252;2023-04-12T06:10:42;2.93;;;1.13;;
2041;SDS011;1026;51.460;7.252;2023-04-12T06:13:08;1.10;;;1.00;;
2041;SDS011;1026;51.460;7.252;2023-04-12T06:15:33;1.27;;;0.83;;
2041;SDS011;1026;51.460;7.252;2023-04-12T06:18:01;1.40;;;1.00;;
2041;SDS011;1026;51.460;7.252;2023-04-12T06:20:26;1.30;;;1.20;;
2041;SDS011;1026;51.460;7.252;2023-04-12T06:22:52;2.00;;;0.73;;
2041;SDS011;1026;51.460;7.252;2023-04-12T06:25:18;1.03;;;0.83;;
2041;SDS011;1026;51.460;7.252;2023-04-12T06:27:43;1.30;;;0.90;;
2041;SDS011;1026;51.460;7.252;2023-04-12T06:30:09;1.40;;;0.93;;
2041;SDS011;1026;51.460;7.252;2023-04-12T06:32:35;2.20;;;1.07;;
2041;SDS011;1026;51.460;7.252;2023-04-12T06:35:02;1.47;;;1.17;;
2041;SDS011;1026;51.460;7.252;2023-04-12T06:37:29;2.47;;;0.97;;
2041;SDS011;1026;51.460;7.252;2023-04-12T06:39:54;0.80;;;0.80;;
2041;SDS011;1026;51.460;7.252;2023-04-12T06:42:20;1.23;;;1.13;;
2041;SDS011;1026;51.460;7.252;2023-04-12T06:44:52;1.10;;;0.80;;
2041;SDS011;1026;51.460;7.252;2023-04-12T06:47:18;0.80;;;0.80;;
2041;SDS011;1026;51.460;7.252;2023-04-12T06:49:44;1.10;;;0.87;;
2041;SDS011;1026;51.460;7.252;2023-04-12T06:52:10;1.27;;;0.67;;
2041;SDS011;1026;51.460;7.252;2023-04-12T06:54:59;1.20;;;1.03;;
2041;SDS011;1026;51.460;7.252;2023-04-12T06:57:24;0.80;;;0.80;;
2041;SDS011;1026;51.460;7.252;2023-04-12T06:59:50;0.70;;;0.70;;
2041;SDS011;1026;51.460;7.252;2023-04-12T07:02:16;0.60;;;0.60;;
2041;SDS011;1026;51.460;7.252;2023-04-12T07:04:42;0.97;;;0.80;;
2041;SDS011;1026;51.460;7.252;2023-04-12T07:07:08;0.83;;;0.83;;
2041;SDS011;1026;51.460;7.252;2023-04-12T07:09:34;1.07;;;0.97;;
2041;SDS011;1026;51.460;7.252;2023-04-12T07:12:00;0.80;;;0.80;;
2041;SDS011;1026;51.460;7.252;2023-04-12T07:14:27;2.17;;;1.00;;
2041;SDS011;1026;51.460;7.252;2023-04-12T07:16:52;1.63;;;1.40;;
2041;SDS011;1026;51.460;7.252;2023-04-12T07:19:18;1.17;;;0.80;;
2041;SDS011;1026;51.460;7.252;2023-04-12T07:21:43;0.93;;;0.70;;
2041;SDS011;1026;51.460;7.252;2023-04-12T07:24:09;1.13;;;0.63;;
2041;SDS011;1026;51.460;7.252;2023-04-12T07:26:35;1.80;;;0.90;;
2041;SDS011;1026;51.460;7.252;2023-04-12T07:29:01;1.00;;;0.83;;
2041;SDS011;1026;51.460;7.252;2023-04-12T07:31:27;0.67;;;0.67;;
2041;SDS011;1026;51.460;7.252;2023-04-12T07:33:56;1.00;;;0.90;;
2041;SDS011;1026;51.460;7.252;2023-04-12T07:36:21;1.50;;;0.90;;
2041;SDS011;1026;51.460;7.252;2023-04-12T07:38:47;1.10;;;0.80;;
2041;SDS011;1026;51.460;7.252;2023-04-12T07:41:15;0.70;;;0.70;;
2041;SDS011;1026;51.460;7.252;2023-04-12T07:43:42;0.67;;;0.67;;
2041;SDS011;1026;51.460;7.252;2023-04-12T07:46:08;0.60;;;0.50;;
2041;SDS011;1026;51.460;7.252;2023-04-12T07:48:33;0.90;;;0.90;;
2041;SDS011;1026;51.460;7.252;2023-04-12T07:51:13;1.83;;;0.93;;
2041;SDS011;1026;51.460;7.252;2023-04-12T07:53:45;0.80;;;0.80;;
2041;SDS011;1026;51.460;7.252;2023-04-12T07:56:12;0.73;;;0.73;;
2041;SDS011;1026;51.460;7.252;2023-04-12T07:58:38;1.90;;;0.80;;
2041;SDS011;1026;51.460;7.252;2023-04-12T08:01:04;0.80;;;0.77;;
2041;SDS011;1026;51.460;7.252;2023-04-12T08:03:31;4.20;;;0.90;;
2041;SDS011;1026;51.460;7.252;2023-04-12T08:05:57;2.53;;;0.90;;
2041;SDS011;1026;51.460;7.252;2023-04-12T08:08:22;1.10;;;0.90;;
2041;SDS011;1026;51.460;7.252;2023-04-12T08:10:49;1.13;;;0.60;;
2041;SDS011;1026;51.460;7.252;2023-04-12T08:13:15;0.53;;;0.53;;
2041;SDS011;1026;51.460;7.252;2023-04-12T08:15:41;2.30;;;2.20;;
2041;SDS011;1026;51.460;7.252;2023-04-12T08:18:07;0.70;;;0.60;;
2041;SDS011;1026;51.460;7.252;2023-04-12T08:20:34;1.10;;;0.70;;
2041;SDS011;1026;51.460;7.252;2023-04-12T08:23:00;0.60;;;0.60;;
2041;SDS011;1026;51.460;7.252;2023-04-12T08:25:26;1.60;;;0.70;;
2041;SDS011;1026;51.460;7.252;2023-04-12T08:27:52;2.73;;;2.63;;
2041;SDS011;1026;51.460;7.252;2023-04-12T08:30:18;0.90;;;0.67;;
2041;SDS011;1026;51.460;7.252;2023-04-12T08:32:43;0.60;;;0.60;;
2041;SDS011;1026;51.460;7.252;2023-04-12T08:35:09;0.53;;;0.53;;
2041;SDS011;1026;51.460;7.252;2023-04-12T08:37:36;0.63;;;0.60;;
2041;SDS011;1026;51.460;7.252;2023-04-12T08:40:03;0.60;;;0.60;;
2041;SDS011;1026;51.460;7.252;2023-04-12T08:42:31;0.63;;;0.63;;
2041;SDS011;1026;51.460;7.252;2023-04-12T08:44:58;1.43;;;0.60;;
2041;SDS011;1026;51.460;7.252;2023-04-12T08:47:29;1.57;;;0.60;;
2041;SDS011;1026;51.460;7.252;2023-04-12T08:49:59;0.87;;;0.53;;
2041;SDS011;1026;51.460;7.252;2023-04-12T08:52:26;0.70;;;0.70;;
2041;SDS011;1026;51.460;7.252;2023-04-12T08:54:53;1.00;;;0.90;;
2041;SDS011;1026;51.460;7.252;2023-04-12T08:57:20;0.90;;;0.60;;
2041;SDS011;1026;51.460;7.252;2023-04-12T08:59:46;1.20;;;0.70;;
2041;SDS011;1026;51.460;7.252;2023-04-12T09:02:15;0.97;;;0.60;;
2041;SDS011;1026;51.460;7.252;2023-04-12T09:04:48;0.80;;;0.50;;
2041;SDS011;1026;51.460;7.252;2023-04-12T09:07:16;1.70;;;0.70;;
2041;SDS011;1026;51.460;7.252;2023-04-12T09:09:42;1.43;;;0.80;;
2041;SDS011;1026;51.460;7.252;2023-04-12T09:12:09;0.80;;;0.70;;
2041;SDS011;1026;51.460;7.252;2023-04-12T09:14:36;0.50;;;0.50;;
2041;SDS011;1026;51.460;7.252;2023-04-12T09:17:03;1.17;;;0.60;;
2041;SDS011;1026;51.460;7.252;2023-04-12T09:19:30;1.10;;;1.00;;
2041;SDS011;1026;51.460;7.252;2023-04-12T09:21:57;0.90;;;0.50;;
2041;SDS011;1026;51.460;7.252;2023-04-12T09:24:23;0.73;;;0.60;;
2041;SDS011;1026;51.460;7.252;2023-04-12T09:29:31;1.10;;;1.00;;
2041;SDS011;1026;51.460;7.252;2023-04-12T09:32:06;0.60;;;0.60;;
2041;SDS011;1026;51.460;7.252;2023-04-12T09:34:33;1.20;;;1.10;;
2041;SDS011;1026;51.460;7.252;2023-04-12T09:37:11;1.27;;;1.17;;
2041;SDS011;1026;51.460;7.252;2023-04-12T09:39:40;1.53;;;0.80;;
2041;SDS011;1026;51.460;7.252;2023-04-12T09:42:07;0.70;;;0.70;;
2041;SDS011;1026;51.460;7.252;2023-04-12T09:44:34;0.63;;;0.60;;
2041;SDS011;1026;51.460;7.252;2023-04-12T09:47:00;0.60;;;0.60;;
2041;SDS011;1026;51.460;7.252;2023-04-12T09:52:08;0.80;;;0.80;;
2041;SDS011;1026;51.460;7.252;2023-04-12T09:54:39;3.50;;;0.80;;
2041;SDS011;1026;51.460;7.252;2023-04-12T09:57:11;0.70;;;0.70;;
2041;SDS011;1026;51.460;7.252;2023-04-12T09:59:38;0.90;;;0.80;;
2041;SDS011;1026;51.460;7.252;2023-04-12T10:02:07;0.80;;;0.70;;
2041;SDS011;1026;51.460;7.252;2023-04-12T10:04:39;0.83;;;0.60;;
2041;SDS011;1026;51.460;7.252;2023-04-12T10:07:06;0.67;;;0.60;;
2041;SDS011;1026;51.460;7.252;2023-04-12T10:09:32;0.50;;;0.50;;
2041;SDS011;1026;51.460;7.252;2023-04-12T10:12:00;0.57;;;0.57;;
2041;SDS011;1026;51.460;7.252;2023-04-12T10:14:27;0.70;;;0.70;;
2041;SDS011;1026;51.460;7.252;2023-04-12T10:16:57;0.57;;;0.57;;
2041;SDS011;1026;51.460;7.252;2023-04-12T10:19:25;1.03;;;0.57;;
2041;SDS011;1026;51.460;7.252;2023-04-12T10:21:52;0.87;;;0.70;;
2041;SDS011;1026;51.460;7.252;2023-04-12T10:24:21;2.00;;;0.60;;
2041;SDS011;1026;51.460;7.252;2023-04-12T10:26:48;0.80;;;0.80;;
2041;SDS011;1026;51.460;7.252;2023-04-12T10:29:24;0.90;;;0.73;;
2041;SDS011;1026;51.460;7.252;2023-04-12T10:31:56;0.70;;;0.50;;
2041;SDS011;1026;51.460;7.252;2023-04-12T10:34:26;1.57;;;1.10;;
2041;SDS011;1026;51.460;7.252;2023-04-12T10:36:55;0.60;;;0.50;;
2041;SDS011;1026;51.460;7.252;2023-04-12T10:44:47;0.60;;;0.57;;
2041;SDS011;1026;51.460;7.252;2023-04-12T10:47:14;0.83;;;0.73;;
2041;SDS011;1026;51.460;7.252;2023-04-12T10:50:18;1.17;;;0.90;;
2041;SDS011;1026;51.460;7.252;2023-04-12T10:52:42;1.20;;;0.77;;
2041;SDS011;1026;51.460;7.252;2023-04-12T10:55:25;0.80;;;0.80;;
2041;SDS011;1026;51.460;7.252;2023-04-12T10:57:51;1.30;;;0.90;;
2041;SDS011;1026;51.460;7.252;2023-04-12T11:00:18;1.30;;;1.10;;
2041;SDS011;1026;51.460;7.252;2023-04-12T11:05:30;1.30;;;1.20;;
2041;SDS011;1026;51.460;7.252;2023-04-12T11:07:55;1.47;;;1.20;;
2041;SDS011;1026;51.460;7.252;2023-04-12T11:10:24;0.83;;;0.83;;
2041;SDS011;1026;51.460;7.252;2023-04-12T11:12:51;1.77;;;1.67;;
2041;SDS011;1026;51.460;7.252;2023-04-12T11:15:24;1.10;;;1.10;;
2041;SDS011;1026;51.460;7.252;2023-04-12T11:17:52;1.00;;;1.00;;
2041;SDS011;1026;51.460;7.252;2023-04-12T11:20:19;0.50;;;0.50;;
2041;SDS011;1026;51.460;7.252;2023-04-12T11:22:45;0.70;;;0.70;;
2041;SDS011;1026;51.460;7.252;2023-04-12T11:25:14;1.13;;;1.00;;
2041;SDS011;1026;51.460;7.252;2023-04-12T11:27:47;1.80;;;1.37;;
2041;SDS011;1026;51.460;7.252;2023-04-12T11:30:15;0.70;;;0.70;;
2041;SDS011;1026;51.460;7.252;2023-04-12T11:32:43;0.70;;;0.70;;
2041;SDS011;1026;51.460;7.252;2023-04-12T11:35:09;0.80;;;0.80;;
2041;SDS011;1026;51.460;7.252;2023-04-12T11:37:35;1.67;;;1.37;;
2041;SDS011;1026;51.460;7.252;2023-04-12T11:40:02;3.00;;;2.47;;
2041;SDS011;1026;51.460;7.252;2023-04-12T11:42:29;0.77;;;0.77;;
2041;SDS011;1026;51.460;7.252;2023-04-12T11:44:56;1.13;;;1.03;;
2041;SDS011;1026;51.460;7.252;2023-04-12T11:47:23;1.10;;;1.00;;
2041;SDS011;1026;51.460;7.252;2023-04-12T11:49:50;0.97;;;0.70;;
2041;SDS011;1026;51.460;7.252;2023-04-12T11:52:17;0.70;;;0.70;;
2041;SDS011;1026;51.460;7.252;2023-04-12T11:54:44;2.27;;;1.47;;
2041;SDS011;1026;51.460;7.252;2023-04-12T11:57:12;1.20;;;1.10;;
2041;SDS011;1026;51.460;7.252;2023-04-12T11:59:39;1.60;;;1.17;;
2041;SDS011;1026;51.460;7.252;2023-04-12T12:02:07;0.90;;;0.90;;
2041;SDS011;1026;51.460;7.252;2023-04-12T12:04:34;1.77;;;1.00;;
2041;SDS011;1026;51.460;7.252;2023-04-12T12:07:00;2.10;;;1.50;;
2041;SDS011;1026;51.460;7.252;2023-04-12T12:09:25;2.77;;;2.20;;
2041;SDS011;1026;51.460;7.252;2023-04-12T12:11:52;3.53;;;1.63;;
2041;SDS011;1026;51.460;7.252;2023-04-12T12:14:19;3.47;;;2.13;;
2041;SDS011;1026;51.460;7.252;2023-04-12T12:19:35;2.70;;;1.50;;
2041;SDS011;1026;51.460;7.252;2023-04-12T12:22:05;0.90;;;0.90;;
2041;SDS011;1026;51.460;7.252;2023-04-12T12:24:31;1.60;;;1.20;;
2041;SDS011;1026;51.460;7.252;2023-04-12T12:27:00;3.40;;;1.67;;
2041;SDS011;1026;51.460;7.252;2023-04-12T12:29:32;1.30;;;1.20;;
2041;SDS011;1026;51.460;7.252;2023-04-12T12:31:59;3.03;;;1.40;;
2041;SDS011;1026;51.460;7.252;2023-04-12T12:34:30;1.30;;;1.20;;
2041;SDS011;1026;51.460;7.252;2023-04-12T12:36:56;1.33;;;1.00;;
2041;SDS011;1026;51.460;7.252;2023-04-12T12:39:22;1.63;;;1.10;;
2041;SDS011;1026;51.460;7.252;2023-04-12T12:41:55;1.80;;;1.33;;
2041;SDS011;1026;51.460;7.252;2023-04-12T12:44:21;1.60;;;1.50;;
2041;SDS011;1026;51.460;7.252;2023-04-12T12:46:48;2.13;;;1.20;;
2041;SDS011;1026;51.460;7.252;2023-04-12T12:49:14;5.10;;;1.87;;
2041;SDS011;1026;51.460;7.252;2023-04-12T12:51:40;1.80;;;1.57;;
2041;SDS011;1026;51.460;7.252;2023-04-12T12:54:06;4.87;;;1.73;;
2041;SDS011;1026;51.460;7.252;2023-04-12T12:56:32;1.97;;;1.30;;
2041;SDS011;1026;51.460;7.252;2023-04-12T12:58:59;1.57;;;1.03;;
2041;SDS011;1026;51.460;7.252;2023-04-12T13:01:25;3.83;;;1.53;;
2041;SDS011;1026;51.460;7.252;2023-04-12T13:03:51;1.90;;;1.30;;
2041;SDS011;1026;51.460;7.252;2023-04-12T13:06:17;0.60;;;0.60;;
2041;SDS011;1026;51.460;7.252;2023-04-12T13:08:43;2.67;;;1.23;;
2041;SDS011;1026;51.460;7.252;2023-04-12T13:11:08;2.47;;;2.07;;
2041;SDS011;1026;51.460;7.252;2023-04-12T13:13:34;4.13;;;1.40;;
2041;SDS011;1026;51.460;7.252;2023-04-12T13:16:00;2.67;;;1.97;;
2041;SDS011;1026;51.460;7.252;2023-04-12T13:18:26;1.57;;;1.13;;
2041;SDS011;1026;51.460;7.252;2023-04-12T13:20:52;2.50;;;1.67;;
2041;SDS011;1026;51.460;7.252;2023-04-12T13:23:17;2.00;;;1.67;;
2041;SDS011;1026;51.460;7.252;2023-04-12T13:25:43;7.90;;;2.00;;
2041;SDS011;1026;51.460;7.252;2023-04-12T13:28:08;5.37;;;1.60;;
2041;SDS011;1026;51.460;7.252;2023-04-12T13:30:34;2.40;;;1.30;;
2041;SDS011;1026;51.460;7.252;2023-04-12T13:33:00;2.83;;;1.27;;
2041;SDS011;1026;51.460;7.252;2023-04-12T13:35:26;4.10;;;2.40;;
2041;SDS011;1026;51.460;7.252;2023-04-12T13:37:51;2.60;;;1.77;;
2041;SDS011;1026;51.460;7.252;2023-04-12T13:40:17;2.90;;;1.80;;
2041;SDS011;1026;51.460;7.252;2023-04-12T13:42:43;2.43;;;1.67;;
2041;SDS011;1026;51.460;7.252;2023-04-12T13:45:08;5.27;;;2.13;;
2041;SDS011;1026;51.460;7.252;2023-04-12T13:47:35;2.03;;;1.83;;
2041;SDS011;1026;51.460;7.252;2023-04-12T13:50:02;6.60;;;2.87;;
2041;SDS011;1026;51.460;7.252;2023-04-12T13:52:28;3.40;;;2.10;;
2041;SDS011;1026;51.460;7.252;2023-04-12T13:54:53;5.27;;;1.80;;
2041;SDS011;1026;51.460;7.252;2023-04-12T13:57:19;3.93;;;3.20;;
2041;SDS011;1026;51.460;7.252;2023-04-12T13:59:45;3.10;;;2.03;;
2041;SDS011;1026;51.460;7.252;2023-04-12T14:02:10;4.80;;;2.20;;
2041;SDS011;1026;51.460;7.252;2023-04-12T14:04:37;6.30;;;2.77;;
2041;SDS011;1026;51.460;7.252;2023-04-12T14:07:16;4.37;;;2.27;;
2041;SDS011;1026;51.460;7.252;2023-04-12T14:09:42;2.23;;;1.87;;
2041;SDS011;1026;51.460;7.252;2023-04-12T14:12:08;4.33;;;1.53;;
2041;SDS011;1026;51.460;7.252;2023-04-12T14:14:33;1.83;;;1.47;;
2041;SDS011;1026;51.460;7.252;2023-04-12T14:16:59;2.50;;;2.30;;
2041;SDS011;1026;51.460;7.252;2023-04-12T14:19:25;1.90;;;1.60;;
2041;SDS011;1026;51.460;7.252;2023-04-12T14:21:51;2.30;;;1.40;;
2041;SDS011;1026;51.460;7.252;2023-04-12T14:24:18;5.13;;;1.80;;
2041;SDS011;1026;51.460;7.252;2023-04-12T14:26:44;4.70;;;2.00;;
2041;SDS011;1026;51.460;7.252;2023-04-12T14:29:11;3.33;;;2.10;;
2041;SDS011;1026;51.460;7.252;2023-04-12T14:31:37;3.60;;;3.30;;
2041;SDS011;1026;51.460;7.252;2023-04-12T14:34:03;3.50;;;2.07;;
2041;SDS011;1026;51.460;7.252;2023-04-12T14:36:29;5.60;;;2.70;;
2041;SDS011;1026;51.460;7.252;2023-04-12T14:38:57;7.37;;;3.60;;
2041;SDS011;1026;51.460;7.252;2023-04-12T14:41:22;7.70;;;2.90;;
2041;SDS011;1026;51.460;7.252;2023-04-12T14:43:48;8.10;;;2.90;;
2041;SDS011;1026;51.460;7.252;2023-04-12T14:46:15;6.30;;;3.73;;
2041;SDS011;1026;51.460;7.252;2023-04-12T14:52:03;3.97;;;2.53;;
2041;SDS011;1026;51.460;7.252;2023-04-12T14:54:28;3.93;;;2.33;;
2041;SDS011;1026;51.460;7.252;2023-04-12T14:57:21;4.20;;;3.10;;
2041;SDS011;1026;51.460;7.252;2023-04-12T14:59:47;11.00;;;3.67;;
2041;SDS011;1026;51.460;7.252;2023-04-12T15:02:12;11.00;;;3.83;;
2041;SDS011;1026;51.460;7.252;2023-04-12T15:04:38;2.43;;;1.70;;
2041;SDS011;1026;51.460;7.252;2023-04-12T15:07:04;5.00;;;2.03;;
2041;SDS011;1026;51.460;7.252;2023-04-12T15:09:36;5.07;;;2.17;;
2041;SDS011;1026;51.460;7.252;2023-04-12T15:12:01;4.30;;;2.63;;
2041;SDS011;1026;51.460;7.252;2023-04-12T15:14:27;6.23;;;3.87;;
2041;SDS011;1026;51.460;7.252;2023-04-12T15:16:53;2.50;;;1.60;;
2041;SDS011;1026;51.460;7.252;2023-04-12T15:19:19;5.37;;;2.83;;
2041;SDS011;1026;51.460;7.252;2023-04-12T15:21:49;5.83;;;2.13;;
2041;SDS011;1026;51.460;7.252;2023-04-12T15:24:16;2.60;;;1.60;;
2041;SDS011;1026;51.460;7.252;2023-04-12T15:26:42;6.53;;;2.70;;
2041;SDS011;1026;51.460;7.252;2023-04-12T15:29:09;2.83;;;1.87;;
2041;SDS011;1026;51.460;7.252;2023-04-12T15:31:34;2.70;;;2.50;;
2041;SDS011;1026;51.460;7.252;2023-04-12T15:34:00;2.70;;;1.97;;
2041;SDS011;1026;51.460;7.252;2023-04-12T15:36:26;2.73;;;2.20;;
2041;SDS011;1026;51.460;7.252;2023-04-12T15:38:58;4.07;;;2.73;;
2041;SDS011;1026;51.460;7.252;2023-04-12T15:41:24;9.90;;;4.17;;
2041;SDS011;1026;51.460;7.252;2023-04-12T15:43:50;6.43;;;2.93;;
2041;SDS011;1026;51.460;7.252;2023-04-12T15:46:21;7.30;;;3.70;;